Time;durP1;ratioP1;P1;durP2;ratioP2;P2;SDS_P1;SDS_P2;PMS_P1;PMS_P2;Temp;Humidity;BMP_temperature;BMP_pressure;BME280_temperature;BME280_humidity;BME280_pressure;Samples;Min_cycle;Max_cycle;Signal;HPM_P1;HPM_P2
2022/01/18 00:02:03;;;;;;;;;;;;;;;27.99;52.83;96965.39;618751;229;68319;-71
2022/01/18 00:04:31;;;;;;;;;;;;;;;27.95;52.35;96938.23;618692;229;65034;-71
2022/01/18 00:06:58;;;;;;;;;;;;;;;27.94;53.07;96950.16;618682;229;68612;-71
2022/01/18 00:09:26;;;;;;;;;;;;;;;27.94;52.72;96969.06;618672;227;68861;-70
2022/01/18 00:12:14;;;;;;;;;;;;;;;27.96;52.44;96982.23;618662;227;63005;-71
2022/01/18 00:15:15;;;;;;;;;;;;;;;27.95;52.13;96967.16;618234;228;68638;-71
2022/01/18 00:17:05;;;;;;;;;;;;;;;27.92;53.78;96976.69;616485;229;66322;-71
2022/01/18 00:19:34;;;;;;;;;;;;;;;27.93;52.85;96972.86;618706;229;64879;-71
2022/01/18 00:24:39;;;;;;;;;;;;;;;27.89;51.96;96963.81;618693;229;68483;-71
2022/01/18 00:27:10;;;;;;;;;;;;;;;27.89;53.30;96978.11;618715;229;65370;-71
2022/01/18 00:29:41;;;;;;;;;;;;;;;27.90;53.14;96981.60;618764;229;68325;-70
2022/01/18 00:32:19;;;;;;;;;;;;;;;27.87;52.38;96979.53;618658;228;68370;-63
2022/01/18 00:34:38;;;;;;;;;;;;;;;27.85;53.09;96998.74;617977;229;68092;-63
2022/01/18 00:39:40;;;;;;;;;;;;;;;27.86;54.86;97011.16;618697;229;68331;-63
2022/01/18 00:42:07;;;;;;;;;;;;;;;27.82;53.24;96987.79;618674;228;64906;-63
2022/01/18 00:44:35;;;;;;;;;;;;;;;27.81;53.64;97013.22;618743;229;68427;-63
2022/01/18 00:47:02;;;;;;;;;;;;;;;27.81;53.86;97029.41;618707;229;68518;-63
2022/01/18 00:49:31;;;;;;;;;;;;;;;27.79;53.14;97035.09;618624;229;65073;-63
2022/01/18 00:52:04;;;;;;;;;;;;;;;27.82;54.17;97044.50;618027;229;68778;-63
2022/01/18 00:54:36;;;;;;;;;;;;;;;27.80;54.41;97052.94;617488;227;68786;-63
2022/01/18 00:56:57;;;;;;;;;;;;;;;27.78;54.70;97070.52;617437;228;62736;-63
2022/01/18 00:59:25;;;;;;;;;;;;;;;27.77;53.31;97045.41;617550;229;66574;-63
2022/01/18 01:01:52;;;;;;;;;;;;;;;27.77;53.16;97061.61;617573;229;66635;-63
2022/01/18 01:04:22;;;;;;;;;;;;;;;27.80;52.92;97058.33;617464;229;62888;-63
2022/01/18 01:06:49;;;;;;;;;;;;;;;27.79;54.03;97058.60;617544;227;66682;-63
2022/01/18 01:09:16;;;;;;;;;;;;;;;27.76;54.30;97072.73;617532;229;66528;-63
2022/01/18 01:11:44;;;;;;;;;;;;;;;27.74;53.72;97091.94;617613;229;63001;-63
2022/01/18 01:14:17;;;;;;;;;;;;;;;27.72;54.19;97118.48;617575;229;68729;-64
2022/01/18 01:33:21;;;;;;;;;;;;;;;27.69;53.50;97156.88;617588;229;68779;-63
2022/01/18 01:43:49;;;;;;;;;;;;;;;27.63;54.50;97172.41;617587;229;65343;-63
2022/01/18 01:46:05;;;;;;;;;;;;;;;27.64;54.48;97179.42;617255;228;66271;-63
2022/01/18 01:48:32;;;;;;;;;;;;;;;27.61;54.65;97157.63;617634;229;66686;-63
2022/01/18 01:51:05;;;;;;;;;;;;;;;27.60;55.08;97180.34;617481;229;62815;-63
2022/01/18 01:53:33;;;;;;;;;;;;;;;27.59;53.27;97189.56;617574;229;69042;-63
2022/01/18 01:56:01;;;;;;;;;;;;;;;27.57;53.58;97211.45;617562;227;68642;-63
2022/01/18 01:58:30;;;;;;;;;;;;;;;27.59;54.23;97206.55;617560;229;63670;-63
2022/01/18 02:00:59;;;;;;;;;;;;;;;27.59;54.08;97211.16;617538;229;68772;-63
2022/01/18 02:03:26;;;;;;;;;;;;;;;27.57;54.37;97224.16;617617;229;68685;-63
2022/01/18 02:05:54;;;;;;;;;;;;;;;27.52;54.30;97225.08;617571;229;65045;-63
2022/01/18 02:08:21;;;;;;;;;;;;;;;27.53;54.77;97224.00;617581;229;68669;-63
2022/01/18 02:10:51;;;;;;;;;;;;;;;27.53;54.88;97229.39;617495;228;68536;-63
2022/01/18 02:13:18;;;;;;;;;;;;;;;27.52;55.27;97238.58;617543;229;62727;-63
2022/01/18 02:16:10;;;;;;;;;;;;;;;27.53;55.34;97250.16;617598;227;68722;-63
2022/01/18 02:23:46;;;;;;;;;;;;;;;27.50;55.84;97265.10;617574;229;68840;-63
2022/01/18 02:26:13;;;;;;;;;;;;;;;27.48;55.36;97258.42;617536;229;68579;-63
2022/01/18 02:28:41;;;;;;;;;;;;;;;27.47;55.26;97256.80;617570;229;64846;-63
2022/01/18 02:31:08;;;;;;;;;;;;;;;27.46;55.69;97256.01;617512;229;68599;-63
2022/01/18 02:33:36;;;;;;;;;;;;;;;27.43;53.35;97264.73;617544;229;66219;-63
2022/01/18 02:36:05;;;;;;;;;;;;;;;27.40;54.13;97274.23;617543;229;62951;-63
2022/01/18 02:38:32;;;;;;;;;;;;;;;27.42;53.97;97279.34;617564;229;66629;-63
2022/01/18 02:41:00;;;;;;;;;;;;;;;27.40;53.43;97300.42;617515;229;67021;-63
2022/01/18 02:46:13;;;;;;;;;;;;;;;27.41;54.20;97318.20;617581;227;68877;-63
2022/01/18 02:48:40;;;;;;;;;;;;;;;27.39;53.97;97323.11;617559;229;68650;-63
2022/01/18 02:51:09;;;;;;;;;;;;;;;27.36;52.89;97318.32;617502;229;64892;-63
2022/01/18 02:53:38;;;;;;;;;;;;;;;27.36;53.40;97321.02;617540;229;68808;-71
2022/01/18 02:56:05;;;;;;;;;;;;;;;27.34;53.44;97344.84;617201;228;68560;-63
2022/01/18 02:58:35;;;;;;;;;;;;;;;27.36;53.53;97345.30;617298;229;65115;-63
2022/01/18 03:03:36;;;;;;;;;;;;;;;27.29;53.89;97353.83;617563;229;66428;-63
2022/01/18 03:06:04;;;;;;;;;;;;;;;27.31;55.22;97364.31;617532;229;62991;-63
2022/01/18 03:08:33;;;;;;;;;;;;;;;27.28;55.96;97373.80;617558;229;66704;-63
2022/01/18 03:11:02;;;;;;;;;;;;;;;27.29;53.44;97363.84;617532;229;68713;-63
2022/01/18 03:13:30;;;;;;;;;;;;;;;27.29;53.95;97385.42;617590;229;63073;-63
2022/01/18 03:15:58;;;;;;;;;;;;;;;27.30;56.28;97395.10;617532;229;68819;-63
2022/01/18 03:18:25;;;;;;;;;;;;;;;27.27;55.80;97388.41;617507;229;68732;-63
2022/01/18 03:20:54;;;;;;;;;;;;;;;27.26;56.16;97389.52;617549;229;65103;-63
2022/01/18 03:23:23;;;;;;;;;;;;;;;27.27;55.65;97390.31;617575;229;66519;-63
2022/01/18 03:25:56;;;;;;;;;;;;;;;27.23;53.46;97399.02;617532;229;68656;-63
2022/01/18 03:28:23;;;;;;;;;;;;;;;27.23;53.91;97398.23;617562;227;64755;-63
2022/01/18 03:30:54;;;;;;;;;;;;;;;27.19;55.21;97411.50;617531;229;68792;-63
2022/01/18 03:33:22;;;;;;;;;;;;;;;27.20;55.01;97410.42;617542;229;68827;-63
2022/01/18 03:35:51;;;;;;;;;;;;;;;27.18;54.03;97415.31;617539;229;65113;-63
2022/01/18 03:38:21;;;;;;;;;;;;;;;27.19;55.82;97405.31;617519;229;66515;-63
2022/01/18 03:40:48;;;;;;;;;;;;;;;27.19;56.23;97413.41;617581;229;68825;-64
2022/01/18 03:43:17;;;;;;;;;;;;;;;27.13;55.88;97420.78;617546;227;64941;-64
2022/01/18 03:45:46;;;;;;;;;;;;;;;27.14;55.03;97426.97;617565;229;66399;-64
2022/01/18 03:48:23;;;;;;;;;;;;;;;27.11;55.05;97431.06;617550;229;68490;-64
2022/01/18 03:50:45;;;;;;;;;;;;;;;27.11;55.97;97432.97;617349;228;65063;-64
2022/01/18 03:53:12;;;;;;;;;;;;;;;27.13;55.37;97425.38;618742;229;68787;-64
2022/01/18 03:55:40;;;;;;;;;;;;;;;27.09;54.91;97419.80;618593;229;66901;-64
2022/01/18 03:58:07;;;;;;;;;;;;;;;27.09;55.55;97437.86;618447;229;63044;-64
2022/01/18 04:00:35;;;;;;;;;;;;;;;27.08;54.90;97434.37;618666;229;66582;-63
2022/01/18 04:03:02;;;;;;;;;;;;;;;27.07;55.40;97431.98;618643;229;66335;-64
2022/01/18 04:05:30;;;;;;;;;;;;;;;27.07;55.38;97435.48;618632;227;62785;-70
2022/01/18 04:07:58;;;;;;;;;;;;;;;27.07;54.00;97454.36;618697;229;68856;-71
2022/01/18 04:10:25;;;;;;;;;;;;;;;27.06;55.46;97460.84;618629;229;68654;-71
2022/01/18 04:12:55;;;;;;;;;;;;;;;27.04;54.30;97468.45;618679;229;65017;-71
2022/01/18 04:15:22;;;;;;;;;;;;;;;27.00;53.53;97470.93;618605;227;68459;-71
2022/01/18 04:26:54;;;;;;;;;;;;;;;27.05;54.29;97504.31;618639;229;66520;-70
2022/01/18 04:28:39;;;;;;;;;;;;;;;26.99;53.43;97522.49;617824;229;65189;-63
2022/01/18 04:31:04;;;;;;;;;;;;;;;26.97;52.79;97530.08;618590;228;68886;-63
2022/01/18 04:33:32;;;;;;;;;;;;;;;26.94;53.34;97528.77;618672;229;68380;-63
2022/01/18 04:36:00;;;;;;;;;;;;;;;26.90;54.56;97524.26;618652;229;62964;-63
2022/01/18 04:38:27;;;;;;;;;;;;;;;26.89;53.74;97538.84;618743;229;66133;-63
2022/01/18 04:41:00;;;;;;;;;;;;;;;26.91;53.77;97533.97;618647;227;68435;-63
2022/01/18 04:43:44;;;;;;;;;;;;;;;26.88;54.79;97534.56;618569;228;65129;-64
2022/01/18 04:48:40;;;;;;;;;;;;;;;26.86;55.10;97542.94;618701;229;68353;-63
2022/01/18 04:51:08;;;;;;;;;;;;;;;26.86;55.46;97542.14;618596;229;64881;-63
2022/01/18 04:53:38;;;;;;;;;;;;;;;26.83;56.04;97558.92;618705;229;68444;-63
2022/01/18 04:56:10;;;;;;;;;;;;;;;26.85;54.88;97554.04;618684;227;66232;-63
2022/01/18 04:58:36;;;;;;;;;;;;;;;26.82;54.65;97558.12;618668;227;62796;-63
2022/01/18 05:01:05;;;;;;;;;;;;;;;26.83;55.59;97564.31;618727;229;68550;-63
2022/01/18 05:03:33;;;;;;;;;;;;;;;26.81;56.06;97572.69;618691;229;68488;-63
2022/01/18 05:06:07;;;;;;;;;;;;;;;26.83;55.17;97577.80;618665;229;65133;-62
2022/01/18 05:08:30;;;;;;;;;;;;;;;26.79;56.27;97581.09;618563;228;68860;-63
2022/01/18 05:10:58;;;;;;;;;;;;;;;26.79;55.08;97586.48;618652;229;68842;-63
2022/01/18 05:13:58;;;;;;;;;;;;;;;26.79;57.15;97599.14;618725;229;65025;-63
2022/01/18 05:21:34;;;;;;;;;;;;;;;26.77;56.80;97612.93;618662;227;65144;-63
2022/01/18 05:23:59;;;;;;;;;;;;;;;26.77;56.13;97618.33;618599;228;68639;-63
2022/01/18 05:26:29;;;;;;;;;;;;;;;26.77;57.32;97623.72;618623;229;68583;-63
2022/01/18 05:28:59;;;;;;;;;;;;;;;26.75;56.21;97631.29;618693;229;63154;-63
2022/01/18 05:31:27;;;;;;;;;;;;;;;26.73;55.14;97644.26;618747;229;66329;-63
2022/01/18 05:33:54;;;;;;;;;;;;;;;26.71;54.95;97648.34;618666;229;66425;-64
2022/01/18 05:36:22;;;;;;;;;;;;;;;26.73;56.83;97655.05;618669;229;63005;-63
2022/01/18 05:38:50;;;;;;;;;;;;;;;26.71;57.10;97651.86;618674;229;69096;-63
2022/01/18 05:41:17;;;;;;;;;;;;;;;26.69;55.74;97664.83;618635;229;68570;-63
2022/01/18 05:43:45;;;;;;;;;;;;;;;26.71;57.29;97676.13;618712;229;65058;-63
2022/01/18 05:46:12;;;;;;;;;;;;;;;26.69;56.16;97675.61;618666;229;68840;-63
2022/01/18 05:48:40;;;;;;;;;;;;;;;26.68;54.87;97674.02;618669;229;66226;-63
2022/01/18 05:51:07;;;;;;;;;;;;;;;26.67;56.40;97698.56;618614;227;62812;-63
2022/01/18 05:53:35;;;;;;;;;;;;;;;26.64;56.40;97694.55;618693;229;66629;-63
2022/01/18 05:56:11;;;;;;;;;;;;;;;26.61;57.61;97695.14;618683;227;68722;-63
2022/01/18 05:58:35;;;;;;;;;;;;;;;26.64;56.63;97702.64;618445;227;65080;-63
2022/01/18 06:01:03;;;;;;;;;;;;;;;26.64;57.70;97697.25;618643;229;68764;-63
2022/01/18 06:03:39;;;;;;;;;;;;;;;26.62;55.52;97701.33;618671;229;68529;-63
2022/01/18 06:08:50;;;;;;;;;;;;;;;26.61;57.91;97705.92;618674;229;66746;-63
2022/01/18 06:11:17;;;;;;;;;;;;;;;26.61;58.60;97705.13;618640;229;68680;-63
2022/01/18 06:13:44;;;;;;;;;;;;;;;26.61;56.68;97716.70;618594;229;64874;-63
2022/01/18 06:16:12;;;;;;;;;;;;;;;26.61;58.17;97721.30;618653;229;68727;-63
2022/01/18 06:18:39;;;;;;;;;;;;;;;26.61;57.43;97734.78;618665;229;68493;-64
2022/01/18 06:21:07;;;;;;;;;;;;;;;26.56;56.25;97741.03;618696;229;62750;-65
2022/01/18 06:23:34;;;;;;;;;;;;;;;26.57;56.55;97742.63;618666;229;68872;-64
2022/01/18 06:26:03;;;;;;;;;;;;;;;26.58;56.06;97749.64;618693;229;67949;-65
2022/01/18 06:28:32;;;;;;;;;;;;;;;26.56;57.61;97741.83;618673;229;65084;-64
2022/01/18 06:31:00;;;;;;;;;;;;;;;26.58;56.31;97749.64;618641;229;68541;-65
2022/01/18 06:33:27;;;;;;;;;;;;;;;26.59;57.52;97739.66;618649;229;68318;-65
2022/01/18 06:35:56;;;;;;;;;;;;;;;26.56;56.85;97749.12;618665;229;64997;-65
2022/01/18 06:38:24;;;;;;;;;;;;;;;26.56;57.61;97747.22;618711;229;67229;-65
2022/01/18 06:40:51;;;;;;;;;;;;;;;26.57;58.48;97761.50;618684;229;68583;-65
2022/01/18 06:43:19;;;;;;;;;;;;;;;26.53;57.58;97763.98;618538;227;65071;-65
2022/01/18 06:45:47;;;;;;;;;;;;;;;26.51;56.68;97765.36;618639;229;66405;-65
2022/01/18 06:48:14;;;;;;;;;;;;;;;26.51;56.86;97779.62;618669;229;66667;-65
2022/01/18 06:50:42;;;;;;;;;;;;;;;26.49;56.36;97771.02;618618;227;62927;-65
2022/01/18 06:53:09;;;;;;;;;;;;;;;26.47;56.62;97777.79;618570;229;69071;-67
2022/01/18 06:55:37;;;;;;;;;;;;;;;26.47;55.29;97791.27;618641;227;68564;-66
2022/01/18 06:58:04;;;;;;;;;;;;;;;26.51;57.10;97789.61;618316;227;64873;-67
2022/01/18 07:00:32;;;;;;;;;;;;;;;26.52;55.65;97767.77;623335;226;69395;-65
2022/01/18 07:02:59;;;;;;;;;;;;;;;26.54;56.96;97768.27;619647;226;68673;-66
2022/01/18 07:05:27;;;;;;;;;;;;;;;26.54;57.09;97797.91;618511;229;65034;-66
2022/01/18 07:07:54;;;;;;;;;;;;;;;26.53;56.81;97790.13;618616;229;68390;-66
2022/01/18 07:10:25;;;;;;;;;;;;;;;26.56;56.98;97794.95;618610;229;68626;-66
2022/01/18 07:12:55;;;;;;;;;;;;;;;26.59;58.76;97794.36;618411;228;67174;-65
2022/01/18 07:15:20;;;;;;;;;;;;;;;26.60;57.32;97814.03;618353;228;66593;-65
2022/01/18 07:17:53;;;;;;;;;;;;;;;26.57;56.98;97785.75;618642;229;66657;-67
2022/01/18 07:20:21;;;;;;;;;;;;;;;26.40;58.77;97805.07;618539;229;65329;-69
2022/01/18 07:22:48;;;;;;;;;;;;;;;26.43;56.81;97817.17;618591;229;68517;-66
2022/01/18 07:25:18;;;;;;;;;;;;;;;26.46;56.39;97816.59;618568;229;68547;-66
2022/01/18 07:27:45;;;;;;;;;;;;;;;26.42;57.18;97837.14;618541;229;62828;-67
2022/01/18 07:30:14;;;;;;;;;;;;;;;26.38;56.52;97814.53;618489;229;68729;-65
2022/01/18 07:32:42;;;;;;;;;;;;;;;26.40;56.78;97828.53;618571;229;68319;-66
2022/01/18 07:35:12;;;;;;;;;;;;;;;26.40;58.15;97828.53;618542;229;65057;-66
2022/01/18 07:37:39;;;;;;;;;;;;;;;26.35;56.94;97811.34;618147;229;68623;-65
2022/01/18 07:40:07;;;;;;;;;;;;;;;26.35;57.97;97822.13;618548;229;69017;-67
2022/01/18 07:42:35;;;;;;;;;;;;;;;26.38;58.37;97814.53;618540;229;65072;-66
2022/01/18 07:45:03;;;;;;;;;;;;;;;26.37;58.37;97818.33;618661;229;68651;-68
2022/01/18 07:47:31;;;;;;;;;;;;;;;26.35;57.00;97815.91;618575;229;68816;-67
2022/01/18 07:49:58;;;;;;;;;;;;;;;26.34;57.58;97823.19;618424;229;65085;-67
2022/01/18 07:52:26;;;;;;;;;;;;;;;26.32;58.14;97805.70;616027;229;68740;-67
2022/01/18 07:54:54;;;;;;;;;;;;;;;26.29;58.81;97807.08;615171;230;66697;-67
2022/01/18 07:57:21;;;;;;;;;;;;;;;26.30;57.34;97821.34;615209;230;65013;-61
2022/01/18 07:59:49;;;;;;;;;;;;;;;26.28;57.90;97816.26;615201;230;66329;-66
2022/01/18 08:02:16;;;;;;;;;;;;;;;26.31;60.07;97798.72;615153;230;68508;-67
2022/01/18 08:04:44;;;;;;;;;;;;;;;26.27;59.46;97795.80;615127;230;65021;-67
2022/01/18 08:07:11;;;;;;;;;;;;;;;26.27;58.65;97811.97;615112;230;70238;-66
2022/01/18 08:09:39;;;;;;;;;;;;;;;26.27;57.31;97822.75;615171;230;68728;-70
2022/01/18 08:12:07;;;;;;;;;;;;;;;26.25;56.77;97806.06;614808;230;65034;-67
2022/01/18 08:14:34;;;;;;;;;;;;;;;26.24;56.43;97815.21;614953;230;68893;-67
2022/01/18 08:17:04;;;;;;;;;;;;;;;26.26;57.40;97806.86;615029;230;68644;-67
2022/01/18 08:19:33;;;;;;;;;;;;;;;26.23;57.23;97821.70;615104;230;65104;-66
2022/01/18 08:22:01;;;;;;;;;;;;;;;26.24;57.73;97836.77;615306;230;66400;-67
2022/01/18 08:24:29;;;;;;;;;;;;;;;26.21;58.25;97853.50;615185;230;68549;-67
2022/01/18 08:26:57;;;;;;;;;;;;;;;26.20;58.28;97859.99;615182;230;64953;-64
2022/01/18 08:29:24;;;;;;;;;;;;;;;26.25;58.27;97859.95;615073;230;66911;-67
2022/01/18 08:31:52;;;;;;;;;;;;;;;26.23;57.61;97856.72;614739;230;66438;-65
2022/01/18 08:34:21;;;;;;;;;;;;;;;26.19;56.89;97882.64;615151;230;63179;-66
2022/01/18 08:36:51;;;;;;;;;;;;;;;26.22;57.93;97860.52;615077;228;50375;-66
2022/01/18 08:39:18;;;;;;;;;;;;;;;26.21;58.88;97875.06;615208;230;68723;-67
2022/01/18 08:41:46;;;;;;;;;;;;;;;26.24;58.71;97869.09;615156;230;62738;-66
2022/01/18 08:44:13;;;;;;;;;;;;;;;26.22;58.72;97863.22;615156;230;68559;-66
2022/01/18 08:46:41;;;;;;;;;;;;;;;26.24;58.64;97869.09;615137;230;66011;-65
2022/01/18 08:49:09;;;;;;;;;;;;;;;26.23;57.90;97861.31;615298;230;63014;-64
2022/01/18 08:51:36;;;;;;;;;;;;;;;26.24;58.34;97868.30;615201;229;68687;-67
2022/01/18 08:54:04;;;;;;;;;;;;;;;26.23;57.75;97867.50;615200;230;66657;-65
2022/01/18 08:56:32;;;;;;;;;;;;;;;26.22;58.22;97863.22;615270;230;65311;-65
2022/01/18 08:58:59;;;;;;;;;;;;;;;26.26;59.39;97879.60;615128;230;68442;-66
2022/01/18 09:01:27;;;;;;;;;;;;;;;26.26;59.43;97861.54;615204;228;68295;-65
2022/01/18 09:03:54;;;;;;;;;;;;;;;26.27;60.26;97871.25;615223;230;65225;-65
2022/01/18 09:06:24;;;;;;;;;;;;;;;26.29;59.42;97860.17;615224;228;68494;-65
2022/01/18 09:08:57;;;;;;;;;;;;;;;26.30;58.38;97859.89;615191;230;68518;-66
2022/01/18 09:11:36;;;;;;;;;;;;;;;26.31;57.25;97853.41;615271;230;44676;-66
2022/01/18 09:14:05;;;;;;;;;;;;;;;26.28;57.60;97853.19;609482;228;47099;-66
2022/01/18 09:16:33;;;;;;;;;;;;;;;26.31;60.33;97855.30;615296;230;68522;-66
2022/01/18 09:19:04;;;;;;;;;;;;;;;26.28;58.90;97853.19;615175;230;65115;-65
2022/01/18 09:21:33;;;;;;;;;;;;;;;26.28;58.35;97856.67;615183;230;69020;-64
2022/01/18 09:24:04;;;;;;;;;;;;;;;26.28;57.43;97858.58;614694;228;66721;-65
2022/01/18 09:26:35;;;;;;;;;;;;;;;26.33;58.25;97862.02;614845;230;65022;-65
2022/01/18 09:29:03;;;;;;;;;;;;;;;26.36;57.02;97874.12;615133;230;66523;-66
2022/01/18 09:31:30;;;;;;;;;;;;;;;26.40;57.02;97860.87;615190;230;66520;-66
2022/01/18 09:33:59;;;;;;;;;;;;;;;26.35;57.53;97862.55;615259;228;62825;-66
2022/01/18 09:36:27;;;;;;;;;;;;;;;26.37;56.78;97856.05;615105;228;66301;-66
2022/01/18 09:38:55;;;;;;;;;;;;;;;26.36;56.62;97860.64;615150;230;68637;-65
2022/01/18 09:41:27;;;;;;;;;;;;;;;26.34;56.85;97869.00;615200;230;64938;-66
2022/01/18 09:43:53;;;;;;;;;;;;;;;26.33;57.08;97856.63;615156;230;68833;-66
2022/01/18 09:46:22;;;;;;;;;;;;;;;26.39;57.58;97868.16;615032;230;68590;-65
2022/01/18 09:48:52;;;;;;;;;;;;;;;26.47;57.29;97856.75;615194;230;64893;-66
2022/01/18 09:51:20;;;;;;;;;;;;;;;26.47;56.94;97861.34;616106;226;68823;-65
2022/01/18 09:53:47;;;;;;;;;;;;;;;26.48;57.16;97844.87;621443;226;66416;-66
2022/01/18 09:56:15;;;;;;;;;;;;;;;26.48;56.68;97834.09;620472;226;62844;-65
2022/01/18 09:58:44;;;;;;;;;;;;;;;26.53;57.03;97835.95;621961;226;68845;-65
2022/01/18 10:01:11;;;;;;;;;;;;;;;26.54;57.37;97824.08;624746;226;68412;-63
2022/01/18 10:03:39;;;;;;;;;;;;;;;26.57;56.84;97826.19;625675;226;65009;-65
2022/01/18 10:06:07;;;;;;;;;;;;;;;26.56;56.28;97824.59;625710;226;66641;-66
2022/01/18 10:08:37;;;;;;;;;;;;;;;26.54;56.44;97827.56;625706;226;66964;-65
2022/01/18 10:11:16;;;;;;;;;;;;;;;26.55;56.02;97823.80;625526;226;62773;-65
2022/01/18 10:13:49;;;;;;;;;;;;;;;26.55;55.42;97823.00;625701;226;68764;-65
2022/01/18 10:16:21;;;;;;;;;;;;;;;26.54;55.04;97819.48;625712;226;66509;-66
2022/01/18 10:19:03;;;;;;;;;;;;;;;26.56;53.55;97809.22;625626;226;65121;-66
2022/01/18 10:21:34;;;;;;;;;;;;;;;26.59;53.97;97815.13;625759;226;68732;-65
2022/01/18 10:24:21;;;;;;;;;;;;;;;26.61;53.86;97815.66;625716;226;68326;-67
2022/01/18 10:26:49;;;;;;;;;;;;;;;26.62;53.58;97807.27;625072;226;65296;-67
2022/01/18 10:29:19;;;;;;;;;;;;;;;26.64;53.64;97806.98;624093;226;66159;-67
2022/01/18 10:31:59;;;;;;;;;;;;;;;26.65;54.52;97803.19;622365;226;68666;-67
2022/01/18 10:34:26;;;;;;;;;;;;;;;26.67;53.66;97801.81;620200;226;46582;-67
2022/01/18 10:37:02;;;;;;;;;;;;;;;26.69;55.83;97799.64;621991;226;66898;-68
2022/01/18 10:39:34;;;;;;;;;;;;;;;26.71;56.85;97781.28;619871;226;68727;-65
2022/01/18 10:42:03;;;;;;;;;;;;;;;26.75;54.73;97784.19;625593;226;64853;-64
2022/01/18 10:44:34;;;;;;;;;;;;;;;26.77;55.58;97784.71;625525;226;68651;-64
2022/01/18 10:47:01;;;;;;;;;;;;;;;26.78;56.91;97783.61;625641;226;66549;-64
2022/01/18 10:49:30;;;;;;;;;;;;;;;26.80;56.88;97778.73;625650;226;63817;-64
2022/01/18 10:52:02;;;;;;;;;;;;;;;26.81;56.53;97783.02;625043;226;66555;-63
2022/01/18 10:54:41;;;;;;;;;;;;;;;26.82;55.22;97787.34;624278;226;68629;-64
2022/01/18 10:57:11;;;;;;;;;;;;;;;26.86;57.47;97801.04;624449;227;64993;-64
2022/01/18 10:59:40;;;;;;;;;;;;;;;26.86;56.11;97792.95;624467;227;69359;-65
2022/01/18 11:02:10;;;;;;;;;;;;;;;26.87;56.15;97784.55;624412;227;68660;-67
2022/01/18 11:04:38;;;;;;;;;;;;;;;26.88;54.40;97793.47;624480;227;63007;-65
2022/01/18 11:07:06;;;;;;;;;;;;;;;26.89;56.76;97781.58;624317;227;68896;-65
2022/01/18 11:09:34;;;;;;;;;;;;;;;26.90;55.45;97777.77;624530;227;68668;-65
2022/01/18 11:12:02;;;;;;;;;;;;;;;26.91;57.79;97787.48;624402;227;65037;-65
2022/01/18 11:14:31;;;;;;;;;;;;;;;26.93;57.70;97796.89;624517;227;68767;-63
2022/01/18 11:16:59;;;;;;;;;;;;;;;26.95;57.69;97785.80;624521;227;66344;-65
2022/01/18 11:19:33;;;;;;;;;;;;;;;26.97;57.06;97783.62;624639;227;64850;-64
2022/01/18 11:22:00;;;;;;;;;;;;;;;26.99;55.17;97792.23;624553;226;68762;-64
2022/01/18 11:24:29;;;;;;;;;;;;;;;26.99;56.09;97773.34;624498;227;68976;-64
2022/01/18 11:26:57;;;;;;;;;;;;;;;27.01;55.44;97774.66;624493;227;65201;-64
2022/01/18 11:29:26;;;;;;;;;;;;;;;27.03;55.68;97771.66;624555;227;66432;-65
2022/01/18 11:31:55;;;;;;;;;;;;;;;27.06;57.31;97768.37;624433;227;68693;-64
2022/01/18 11:34:24;;;;;;;;;;;;;;;27.07;55.73;97783.48;624610;227;64826;-70
2022/01/18 11:36:52;;;;;;;;;;;;;;;27.08;55.91;97782.37;624368;226;68887;-67
2022/01/18 11:39:20;;;;;;;;;;;;;;;27.12;56.24;97785.28;624457;226;66450;-64
2022/01/18 11:41:48;;;;;;;;;;;;;;;27.14;55.96;97781.20;624564;227;64921;-66
2022/01/18 11:44:27;;;;;;;;;;;;;;;27.15;55.75;97777.42;624520;226;45050;-65
2022/01/18 11:46:52;;;;;;;;;;;;;;;27.14;55.35;97765.01;624476;226;68722;-66
2022/01/18 11:49:22;;;;;;;;;;;;;;;27.17;56.38;97769.88;624321;226;65396;-65
2022/01/18 11:51:53;;;;;;;;;;;;;;;27.15;55.87;97753.14;624342;226;66645;-66
2022/01/18 11:54:31;;;;;;;;;;;;;;;27.14;56.73;97765.01;624556;226;68712;-65
2022/01/18 11:56:53;;;;;;;;;;;;;;;27.17;58.37;97752.86;624436;226;62924;-66
2022/01/18 11:59:24;;;;;;;;;;;;;;;27.16;57.25;97748.54;624451;227;66430;-66
2022/01/18 12:01:56;;;;;;;;;;;;;;;27.15;55.64;97734.25;624713;226;49812;-65
2022/01/18 12:04:41;;;;;;;;;;;;;;;27.17;56.25;97744.77;624512;227;66003;-65
2022/01/18 12:07:12;;;;;;;;;;;;;;;27.16;54.92;97730.48;624580;227;68827;-62
2022/01/18 12:09:41;;;;;;;;;;;;;;;27.05;52.43;97734.41;624588;227;66743;-62
2022/01/18 12:12:27;;;;;;;;;;;;;;;27.10;55.16;97744.33;624553;227;65146;-63
2022/01/18 12:14:57;;;;;;;;;;;;;;;27.15;56.04;97738.85;620997;227;68608;-65
2022/01/18 12:17:24;;;;;;;;;;;;;;;27.16;56.10;97737.75;624606;227;68471;-64
2022/01/18 12:19:51;;;;;;;;;;;;;;;27.18;53.52;97740.99;624548;227;62947;-65
2022/01/18 12:22:21;;;;;;;;;;;;;;;27.22;55.35;97734.69;624601;227;68761;-66
2022/01/18 12:24:50;;;;;;;;;;;;;;;27.21;54.99;97737.70;624051;227;68679;-62
2022/01/18 12:27:31;;;;;;;;;;;;;;;27.20;54.56;97727.98;623807;227;65064;-63
2022/01/18 12:30:37;;;;;;;;;;;;;;;27.25;55.08;97735.20;624586;226;48706;-64
2022/01/18 12:32:56;;;;;;;;;;;;;;;27.27;55.54;97722.23;623881;227;66302;-62
2022/01/18 12:35:22;;;;;;;;;;;;;;;27.27;54.34;97733.81;624477;226;63297;-60
2022/01/18 12:37:50;;;;;;;;;;;;;;;27.27;55.03;97741.12;624511;227;68622;-61
2022/01/18 12:40:25;;;;;;;;;;;;;;;27.26;55.33;97743.02;624521;227;69138;-61
2022/01/18 12:45:33;;;;;;;;;;;;;;;27.25;54.38;97754.09;624562;227;68831;-67
2022/01/18 12:48:10;;;;;;;;;;;;;;;27.27;53.93;97760.01;624439;226;68514;-67
2022/01/18 12:50:42;;;;;;;;;;;;;;;27.26;55.27;97759.21;624551;226;65001;-62
2022/01/18 12:53:14;;;;;;;;;;;;;;;27.26;54.79;97766.52;624562;227;68838;-65
2022/01/18 12:55:50;;;;;;;;;;;;;;;27.29;54.20;97782.11;624543;227;68324;-67
2022/01/18 12:58:24;;;;;;;;;;;;;;;27.27;54.77;97776.20;624062;226;62965;-65
2022/01/18 13:00:55;;;;;;;;;;;;;;;27.28;54.70;97772.39;624512;227;48225;-66
2022/01/18 13:03:27;;;;;;;;;;;;;;;27.27;54.41;97784.30;624518;227;68240;-65
2022/01/18 13:05:56;;;;;;;;;;;;;;;27.29;54.64;97798.30;624417;226;65035;-64
2022/01/18 13:08:25;;;;;;;;;;;;;;;27.26;54.16;97790.80;624385;226;68650;-66
2022/01/18 13:10:54;;;;;;;;;;;;;;;27.23;53.89;97790.28;623888;227;66303;-64
2022/01/18 13:13:24;;;;;;;;;;;;;;;27.21;53.93;97797.06;624549;226;47688;-65
2022/01/18 13:26:39;;;;;;;;;;;;;;;27.21;55.38;97795.16;624497;227;68708;-62
2022/01/18 13:29:12;;;;;;;;;;;;;;;27.20;56.10;97790.87;624470;226;65276;-65
2022/01/18 13:31:43;;;;;;;;;;;;;;;27.25;55.67;97794.57;624540;227;68873;-64
2022/01/18 13:34:14;;;;;;;;;;;;;;;27.26;54.60;97802.39;624408;226;68496;-67
2022/01/18 13:36:50;;;;;;;;;;;;;;;27.25;54.59;97800.77;624602;227;65190;-65
2022/01/18 13:39:22;;;;;;;;;;;;;;;27.27;55.04;97819.38;621565;226;69603;-63
2022/01/18 13:41:50;;;;;;;;;;;;;;;27.22;53.92;97823.73;624642;227;70163;-64
2022/01/18 13:44:17;;;;;;;;;;;;;;;27.23;53.76;97833.45;624523;227;65078;-66
2022/01/18 13:46:47;;;;;;;;;;;;;;;27.22;54.41;97829.13;624070;227;48416;-64
2022/01/18 13:49:14;;;;;;;;;;;;;;;27.25;55.01;97827.75;623754;227;66158;-67
2022/01/18 13:51:43;;;;;;;;;;;;;;;27.27;55.42;97830.97;624344;226;66407;-67
2022/01/18 13:54:11;;;;;;;;;;;;;;;27.30;54.78;97832.28;625248;226;68798;-66
2022/01/18 13:56:43;;;;;;;;;;;;;;;27.28;55.32;97837.16;625733;226;68818;-67
2022/01/18 13:59:10;;;;;;;;;;;;;;;27.30;54.94;97845.77;624094;226;65098;-67
2022/01/18 14:01:41;;;;;;;;;;;;;;;27.30;54.75;97840.38;625726;226;66558;-67
2022/01/18 14:04:16;;;;;;;;;;;;;;;27.30;55.28;97851.17;625732;226;68617;-68
2022/01/18 14:06:44;;;;;;;;;;;;;;;27.30;55.79;97851.17;625709;226;65126;-67
2022/01/18 14:09:12;;;;;;;;;;;;;;;27.30;55.67;97861.97;625787;226;66675;-67
2022/01/18 14:11:42;;;;;;;;;;;;;;;27.29;55.55;97852.28;625699;226;68488;-65